sensor_id;sensor_type;location;lat;lon;timestamp;pressure;altitude;pressure_sealevel;temperature;humidity
46778;BME280;32536;47.128;8.746;2023-05-01T00:01:44;91480.91;;;15.76;54.06
46778;BME280;32536;47.128;8.746;2023-05-01T00:04:10;91478.53;;;15.78;54.24
46778;BME280;32536;47.128;8.746;2023-05-01T00:06:37;91472.22;;;15.81;53.98
46778;BME280;32536;47.128;8.746;2023-05-01T00:09:04;91468.78;;;15.81;53.95
46778;BME280;32536;47.128;8.746;2023-05-01T00:11:31;91470.44;;;15.78;53.86
46778;BME280;32536;47.128;8.746;2023-05-01T00:13:59;91473.56;;;15.77;53.93
46778;BME280;32536;47.128;8.746;2023-05-01T00:16:26;91475.50;;;15.76;53.97
46778;BME280;32536;47.128;8.746;2023-05-01T00:18:53;91471.44;;;15.72;54.30
46778;BME280;32536;47.128;8.746;2023-05-01T00:21:19;91468.09;;;15.67;53.86
46778;BME280;32536;47.128;8.746;2023-05-01T00:23:46;91473.50;;;15.67;53.92
46778;BME280;32536;47.128;8.746;2023-05-01T00:26:13;91458.94;;;15.65;54.27
46778;BME280;32536;47.128;8.746;2023-05-01T00:28:39;91462.50;;;15.62;54.23
46778;BME280;32536;47.128;8.746;2023-05-01T00:31:06;91460.06;;;15.55;54.61
46778;BME280;32536;47.128;8.746;2023-05-01T00:33:33;91463.34;;;15.49;54.50
46778;BME280;32536;47.128;8.746;2023-05-01T00:36:00;91457.44;;;15.42;54.49
46778;BME280;32536;47.128;8.746;2023-05-01T00:38:26;91460.06;;;15.32;54.75
46778;BME280;32536;47.128;8.746;2023-05-01T00:40:53;91457.16;;;15.27;54.80
46778;BME280;32536;47.128;8.746;2023-05-01T00:43:20;91462.50;;;15.17;55.00
46778;BME280;32536;47.128;8.746;2023-05-01T00:45:46;91458.19;;;15.07;55.12
46778;BME280;32536;47.128;8.746;2023-05-01T00:48:13;91458.75;;;15.02;55.20
46778;BME280;32536;47.128;8.746;2023-05-01T00:50:43;91452.41;;;14.96;55.55
46778;BME280;32536;47.128;8.746;2023-05-01T00:53:10;91446.81;;;14.90;55.42
46778;BME280;32536;47.128;8.746;2023-05-01T00:55:40;91449.75;;;14.83;55.49
46778;BME280;32536;47.128;8.746;2023-05-01T00:58:09;91442.53;;;14.80;55.33
46778;BME280;32536;47.128;8.746;2023-05-01T01:00:37;91446.53;;;14.75;55.42
46778;BME280;32536;47.128;8.746;2023-05-01T01:03:03;91445.47;;;14.72;55.39
46778;BME280;32536;47.128;8.746;2023-05-01T01:05:37;91447.84;;;14.70;55.94
46778;BME280;32536;47.128;8.746;2023-05-01T01:11:25;91435.00;;;14.75;56.19
46778;BME280;32536;47.128;8.746;2023-05-01T01:14:18;91439.84;;;14.80;56.09
46778;BME280;32536;47.128;8.746;2023-05-01T01:16:56;91430.44;;;14.84;55.77
46778;BME280;32536;47.128;8.746;2023-05-01T01:22:34;91426.25;;;14.83;55.45
46778;BME280;32536;47.128;8.746;2023-05-01T01:31:19;91417.19;;;14.77;55.54
46778;BME280;32536;47.128;8.746;2023-05-01T01:33:58;91415.38;;;14.74;55.99
46778;BME280;32536;47.128;8.746;2023-05-01T01:37:03;91417.44;;;14.70;56.03
46778;BME280;32536;47.128;8.746;2023-05-01T01:42:45;91424.53;;;14.64;56.16
46778;BME280;32536;47.128;8.746;2023-05-01T01:45:21;91423.78;;;14.63;55.95
46778;BME280;32536;47.128;8.746;2023-05-01T01:47:51;91423.34;;;14.65;55.66
46778;BME280;32536;47.128;8.746;2023-05-01T01:50:21;91420.34;;;14.63;55.79
46778;BME280;32536;47.128;8.746;2023-05-01T01:52:52;91434.25;;;14.61;55.89
46778;BME280;32536;47.128;8.746;2023-05-01T01:55:21;91425.41;;;14.61;55.97
46778;BME280;32536;47.128;8.746;2023-05-01T01:57:52;91420.88;;;14.57;55.58
46778;BME280;32536;47.128;8.746;2023-05-01T02:00:19;91415.72;;;14.50;55.75
46778;BME280;32536;47.128;8.746;2023-05-01T02:02:47;91417.75;;;14.46;55.93
46778;BME280;32536;47.128;8.746;2023-05-01T02:05:16;91419.09;;;14.41;56.11
46778;BME280;32536;47.128;8.746;2023-05-01T02:07:48;91415.41;;;14.35;56.10
46778;BME280;32536;47.128;8.746;2023-05-01T02:10:16;91410.78;;;14.36;56.17
46778;BME280;32536;47.128;8.746;2023-05-01T02:12:45;91406.91;;;14.37;56.32
46778;BME280;32536;47.128;8.746;2023-05-01T02:15:15;91405.84;;;14.34;56.24
46778;BME280;32536;47.128;8.746;2023-05-01T02:17:44;91406.25;;;14.33;56.34
46778;BME280;32536;47.128;8.746;2023-05-01T02:20:12;91411.34;;;14.31;56.50
46778;BME280;32536;47.128;8.746;2023-05-01T02:22:40;91412.06;;;14.31;56.14
46778;BME280;32536;47.128;8.746;2023-05-01T02:25:09;91413.25;;;14.30;56.39
46778;BME280;32536;47.128;8.746;2023-05-01T02:27:54;91409.06;;;14.29;56.08
46778;BME280;32536;47.128;8.746;2023-05-01T02:30:22;91409.94;;;14.26;56.21
46778;BME280;32536;47.128;8.746;2023-05-01T02:32:49;91405.28;;;14.27;56.23
46778;BME280;32536;47.128;8.746;2023-05-01T02:35:16;91400.66;;;14.27;56.18
46778;BME280;32536;47.128;8.746;2023-05-01T02:37:45;91399.28;;;14.22;56.57
46778;BME280;32536;47.128;8.746;2023-05-01T02:40:13;91401.19;;;14.22;56.30
46778;BME280;32536;47.128;8.746;2023-05-01T02:42:44;91410.16;;;14.19;56.39
46778;BME280;32536;47.128;8.746;2023-05-01T02:45:18;91398.50;;;14.22;56.39
46778;BME280;32536;47.128;8.746;2023-05-01T02:47:50;91402.06;;;14.19;56.70
46778;BME280;32536;47.128;8.746;2023-05-01T02:50:19;91408.53;;;14.21;57.30
46778;BME280;32536;47.128;8.746;2023-05-01T02:52:46;91390.31;;;14.25;56.68
46778;BME280;32536;47.128;8.746;2023-05-01T02:55:13;91393.31;;;14.28;56.68
46778;BME280;32536;47.128;8.746;2023-05-01T02:57:40;91392.03;;;14.32;56.63
46778;BME280;32536;47.128;8.746;2023-05-01T03:00:08;91392.03;;;14.32;56.43
46778;BME280;32536;47.128;8.746;2023-05-01T03:02:35;91387.81;;;14.31;56.34
46778;BME280;32536;47.128;8.746;2023-05-01T03:05:01;91398.28;;;14.29;56.08
46778;BME280;32536;47.128;8.746;2023-05-01T03:07:28;91391.72;;;14.30;55.86
46778;BME280;32536;47.128;8.746;2023-05-01T03:10:01;91384.81;;;14.29;56.42
46778;BME280;32536;47.128;8.746;2023-05-01T03:12:31;91386.13;;;14.24;55.92
46778;BME280;32536;47.128;8.746;2023-05-01T03:14:57;91383.97;;;14.19;55.95
46778;BME280;32536;47.128;8.746;2023-05-01T03:17:24;91382.69;;;14.11;55.98
46778;BME280;32536;47.128;8.746;2023-05-01T03:19:51;91389.81;;;14.05;56.04
46778;BME280;32536;47.128;8.746;2023-05-01T03:22:18;91388.41;;;14.00;55.78
46778;BME280;32536;47.128;8.746;2023-05-01T03:24:45;91388.50;;;13.97;56.14
46778;BME280;32536;47.128;8.746;2023-05-01T03:27:12;91384.53;;;13.88;56.05
46778;BME280;32536;47.128;8.746;2023-05-01T03:29:39;91387.66;;;13.87;55.97
46778;BME280;32536;47.128;8.746;2023-05-01T03:32:05;91380.22;;;13.91;55.83
46778;BME280;32536;47.128;8.746;2023-05-01T03:34:32;91378.69;;;13.90;55.91
46778;BME280;32536;47.128;8.746;2023-05-01T03:37:00;91376.22;;;13.83;56.90
46778;BME280;32536;47.128;8.746;2023-05-01T03:39:27;91381.19;;;13.71;56.46
46778;BME280;32536;47.128;8.746;2023-05-01T03:41:53;91380.94;;;13.53;56.87
46778;BME280;32536;47.128;8.746;2023-05-01T03:44:20;91385.47;;;13.43;57.06
46778;BME280;32536;47.128;8.746;2023-05-01T03:46:47;91378.00;;;13.34;56.83
46778;BME280;32536;47.128;8.746;2023-05-01T03:49:13;91385.50;;;13.26;57.32
46778;BME280;32536;47.128;8.746;2023-05-01T03:51:40;91378.16;;;13.14;57.68
46778;BME280;32536;47.128;8.746;2023-05-01T03:54:07;91382.97;;;13.06;58.04
46778;BME280;32536;47.128;8.746;2023-05-01T03:56:34;91379.81;;;12.95;58.41
46778;BME280;32536;47.128;8.746;2023-05-01T03:59:01;91376.66;;;12.84;58.22
46778;BME280;32536;47.128;8.746;2023-05-01T04:01:28;91377.19;;;12.78;58.08
46778;BME280;32536;47.128;8.746;2023-05-01T04:03:58;91380.78;;;12.72;58.50
46778;BME280;32536;47.128;8.746;2023-05-01T04:06:25;91377.78;;;12.70;58.91
46778;BME280;32536;47.128;8.746;2023-05-01T04:08:51;91379.31;;;12.71;58.66
46778;BME280;32536;47.128;8.746;2023-05-01T04:11:18;91384.00;;;12.67;58.79
46778;BME280;32536;47.128;8.746;2023-05-01T04:13:45;91389.91;;;12.61;59.35
46778;BME280;32536;47.128;8.746;2023-05-01T04:16:12;91389.34;;;12.54;59.33
46778;BME280;32536;47.128;8.746;2023-05-01T04:18:39;91392.50;;;12.48;59.86
46778;BME280;32536;47.128;8.746;2023-05-01T04:21:05;91389.59;;;12.43;59.88
46778;BME280;32536;47.128;8.746;2023-05-01T04:23:32;91388.50;;;12.40;59.77
46778;BME280;32536;47.128;8.746;2023-05-01T04:25:59;91397.31;;;12.41;59.57
46778;BME280;32536;47.128;8.746;2023-05-01T04:28:25;91393.53;;;12.38;59.79
46778;BME280;32536;47.128;8.746;2023-05-01T04:30:55;91389.69;;;12.39;59.23
46778;BME280;32536;47.128;8.746;2023-05-01T04:33:22;91403.94;;;12.36;59.83
46778;BME280;32536;47.128;8.746;2023-05-01T04:35:49;91407.78;;;12.35;59.66
46778;BME280;32536;47.128;8.746;2023-05-01T04:38:16;91402.09;;;12.33;59.16
46778;BME280;32536;47.128;8.746;2023-05-01T04:40:42;91401.34;;;12.32;59.44
46778;BME280;32536;47.128;8.746;2023-05-01T04:43:09;91404.97;;;12.26;60.14
46778;BME280;32536;47.128;8.746;2023-05-01T04:45:54;91410.75;;;12.24;59.22
46778;BME280;32536;47.128;8.746;2023-05-01T04:48:21;91409.25;;;12.23;59.70
46778;BME280;32536;47.128;8.746;2023-05-01T04:50:48;91424.66;;;12.19;60.07
46778;BME280;32536;47.128;8.746;2023-05-01T04:53:14;91415.78;;;12.22;59.42
46778;BME280;32536;47.128;8.746;2023-05-01T04:55:41;91412.25;;;12.25;59.13
46778;BME280;32536;47.128;8.746;2023-05-01T04:58:08;91422.25;;;12.25;59.12
46778;BME280;32536;47.128;8.746;2023-05-01T05:00:34;91423.34;;;12.27;59.12
46778;BME280;32536;47.128;8.746;2023-05-01T05:03:01;91416.69;;;12.15;59.63
46778;BME280;32536;47.128;8.746;2023-05-01T05:05:28;91425.09;;;12.17;59.14
46778;BME280;32536;47.128;8.746;2023-05-01T05:07:55;91417.63;;;12.25;59.11
46778;BME280;32536;47.128;8.746;2023-05-01T05:10:23;91425.84;;;12.35;58.45
46778;BME280;32536;47.128;8.746;2023-05-01T05:12:49;91430.28;;;12.41;58.21
46778;BME280;32536;47.128;8.746;2023-05-01T05:15:16;91428.63;;;12.47;57.98
46778;BME280;32536;47.128;8.746;2023-05-01T05:17:43;91424.25;;;12.54;57.88
46778;BME280;32536;47.128;8.746;2023-05-01T05:20:10;91435.16;;;12.63;57.56
46778;BME280;32536;47.128;8.746;2023-05-01T05:22:37;91439.59;;;12.70;57.44
46778;BME280;32536;47.128;8.746;2023-05-01T05:25:04;91432.09;;;12.77;57.76
46778;BME280;32536;47.128;8.746;2023-05-01T05:27:31;91436.97;;;12.82;57.63
46778;BME280;32536;47.128;8.746;2023-05-01T05:30:06;91436.47;;;12.88;57.60
46778;BME280;32536;47.128;8.746;2023-05-01T05:32:33;91437.03;;;12.95;57.40
46778;BME280;32536;47.128;8.746;2023-05-01T05:35:00;91446.84;;;13.02;57.30
46778;BME280;32536;47.128;8.746;2023-05-01T05:37:27;91450.53;;;13.08;56.97
46778;BME280;32536;47.128;8.746;2023-05-01T05:39:54;91448.41;;;13.16;57.19
46778;BME280;32536;47.128;8.746;2023-05-01T05:42:21;91447.56;;;13.19;57.08
46778;BME280;32536;47.128;8.746;2023-05-01T05:44:48;91442.16;;;13.19;56.78
46778;BME280;32536;47.128;8.746;2023-05-01T05:47:14;91454.78;;;13.22;57.02
46778;BME280;32536;47.128;8.746;2023-05-01T05:49:41;91456.31;;;13.23;56.97
46778;BME280;32536;47.128;8.746;2023-05-01T05:52:08;91449.75;;;13.24;56.90
46778;BME280;32536;47.128;8.746;2023-05-01T05:54:34;91448.88;;;13.27;56.90
46778;BME280;32536;47.128;8.746;2023-05-01T05:57:01;91452.66;;;13.30;56.73
46778;BME280;32536;47.128;8.746;2023-05-01T05:59:28;91451.13;;;13.29;56.91
46778;BME280;32536;47.128;8.746;2023-05-01T06:01:55;91453.81;;;13.29;56.54
46778;BME280;32536;47.128;8.746;2023-05-01T06:04:22;91458.81;;;13.31;56.86
46778;BME280;32536;47.128;8.746;2023-05-01T06:06:49;91457.28;;;13.29;56.68
46778;BME280;32536;47.128;8.746;2023-05-01T06:09:15;91457.69;;;13.28;56.67
46778;BME280;32536;47.128;8.746;2023-05-01T06:11:45;91457.28;;;13.29;56.62
46778;BME280;32536;47.128;8.746;2023-05-01T06:14:12;91454.91;;;13.32;56.49
46778;BME280;32536;47.128;8.746;2023-05-01T06:16:39;91447.94;;;13.34;56.55
46778;BME280;32536;47.128;8.746;2023-05-01T06:19:06;91445.34;;;13.31;56.64
46778;BME280;32536;47.128;8.746;2023-05-01T06:21:35;91447.47;;;13.23;56.65
46778;BME280;32536;47.128;8.746;2023-05-01T06:24:01;91443.25;;;13.22;56.86
46778;BME280;32536;47.128;8.746;2023-05-01T06:26:28;91442.06;;;13.23;56.94
46778;BME280;32536;47.128;8.746;2023-05-01T06:28:55;91444.38;;;13.24;56.47
46778;BME280;32536;47.128;8.746;2023-05-01T06:31:22;91437.47;;;13.23;56.48
46778;BME280;32536;47.128;8.746;2023-05-01T06:33:49;91443.13;;;13.12;56.64
46778;BME280;32536;47.128;8.746;2023-05-01T06:36:15;91440.53;;;13.09;56.87
46778;BME280;32536;47.128;8.746;2023-05-01T06:38:42;91449.03;;;13.07;56.86
46778;BME280;32536;47.128;8.746;2023-05-01T06:41:14;91449.78;;;13.08;56.89
46778;BME280;32536;47.128;8.746;2023-05-01T06:43:41;91446.75;;;13.06;56.88
46778;BME280;32536;47.128;8.746;2023-05-01T06:46:08;91458.38;;;13.03;56.82
46778;BME280;32536;47.128;8.746;2023-05-01T06:48:35;91450.72;;;13.01;56.86
46778;BME280;32536;47.128;8.746;2023-05-01T06:51:02;91456.09;;;13.01;56.95
46778;BME280;32536;47.128;8.746;2023-05-01T06:53:29;91456.75;;;13.05;57.22
46778;BME280;32536;47.128;8.746;2023-05-01T06:55:55;91459.03;;;13.07;56.91
46778;BME280;32536;47.128;8.746;2023-05-01T06:58:22;91455.25;;;13.04;56.65
46778;BME280;32536;47.128;8.746;2023-05-01T07:00:49;91451.81;;;13.04;56.96
46778;BME280;32536;47.128;8.746;2023-05-01T07:03:17;91453.72;;;13.03;56.79
46778;BME280;32536;47.128;8.746;2023-05-01T07:05:43;91466.44;;;13.03;56.98
46778;BME280;32536;47.128;8.746;2023-05-01T07:08:10;91466.44;;;13.03;56.98
46778;BME280;32536;47.128;8.746;2023-05-01T07:10:37;91457.19;;;13.04;56.73
46778;BME280;32536;47.128;8.746;2023-05-01T07:13:03;91462.13;;;13.05;56.93
46778;BME280;32536;47.128;8.746;2023-05-01T07:15:30;91464.31;;;13.10;57.09
46778;BME280;32536;47.128;8.746;2023-05-01T07:17:58;91466.06;;;13.17;56.99
46778;BME280;32536;47.128;8.746;2023-05-01T07:20:27;91460.91;;;13.23;56.66
46778;BME280;32536;47.128;8.746;2023-05-01T07:22:54;91465.03;;;13.27;56.79
46778;BME280;32536;47.128;8.746;2023-05-01T07:25:20;91466.00;;;13.34;56.55
46778;BME280;32536;47.128;8.746;2023-05-01T07:27:47;91465.00;;;13.44;57.06
46778;BME280;32536;47.128;8.746;2023-05-01T07:30:14;91462.88;;;13.52;56.69
46778;BME280;32536;47.128;8.746;2023-05-01T07:32:40;91461.50;;;13.60;56.73
46778;BME280;32536;47.128;8.746;2023-05-01T07:35:07;91465.16;;;13.66;56.74
46778;BME280;32536;47.128;8.746;2023-05-01T07:37:34;91463.44;;;13.72;56.94
46778;BME280;32536;47.128;8.746;2023-05-01T07:40:01;91463.69;;;13.78;56.81
46778;BME280;32536;47.128;8.746;2023-05-01T07:42:28;91463.88;;;13.84;56.77
46778;BME280;32536;47.128;8.746;2023-05-01T07:44:55;91468.34;;;13.90;56.79
46778;BME280;32536;47.128;8.746;2023-05-01T07:47:22;91467.78;;;13.96;56.85
46778;BME280;32536;47.128;8.746;2023-05-01T07:49:48;91473.81;;;13.87;56.32
46778;BME280;32536;47.128;8.746;2023-05-01T07:52:15;91470.88;;;13.81;56.42
46778;BME280;32536;47.128;8.746;2023-05-01T07:54:42;91475.53;;;13.81;56.41
46778;BME280;32536;47.128;8.746;2023-05-01T07:57:13;91476.25;;;13.68;56.26
46778;BME280;32536;47.128;8.746;2023-05-01T07:59:40;91482.25;;;13.59;56.24
46778;BME280;32536;47.128;8.746;2023-05-01T08:02:06;91478.03;;;13.45;56.05
46778;BME280;32536;47.128;8.746;2023-05-01T08:04:33;91473.34;;;13.33;56.06
46778;BME280;32536;47.128;8.746;2023-05-01T08:07:00;91481.59;;;13.26;56.57
46778;BME280;32536;47.128;8.746;2023-05-01T08:09:26;91483.84;;;13.27;56.72
46778;BME280;32536;47.128;8.746;2023-05-01T08:11:53;91485.69;;;13.31;56.61
46778;BME280;32536;47.128;8.746;2023-05-01T08:14:20;91483.00;;;13.31;56.54
46778;BME280;32536;47.128;8.746;2023-05-01T08:16:46;91488.78;;;13.29;56.55
46778;BME280;32536;47.128;8.746;2023-05-01T08:19:18;91489.88;;;13.32;56.82
46778;BME280;32536;47.128;8.746;2023-05-01T08:21:45;91483.66;;;13.35;56.50
46778;BME280;32536;47.128;8.746;2023-05-01T08:24:12;91493.69;;;13.34;56.33
46778;BME280;32536;47.128;8.746;2023-05-01T08:26:39;91491.41;;;13.33;56.28
46778;BME280;32536;47.128;8.746;2023-05-01T08:29:05;91496.56;;;13.27;56.59
46778;BME280;32536;47.128;8.746;2023-05-01T08:31:32;91490.69;;;13.16;56.73
46778;BME280;32536;47.128;8.746;2023-05-01T08:34:05;91492.16;;;13.04;57.20
46778;BME280;32536;47.128;8.746;2023-05-01T08:36:32;91494.06;;;13.03;56.82
46778;BME280;32536;47.128;8.746;2023-05-01T08:38:58;91491.06;;;13.01;57.09
46778;BME280;32536;47.128;8.746;2023-05-01T08:41:26;91496.09;;;12.99;56.99
46778;BME280;32536;47.128;8.746;2023-05-01T08:43:55;91493.94;;;12.94;56.97
46778;BME280;32536;47.128;8.746;2023-05-01T08:46:46;91497.19;;;12.85;58.00
46778;BME280;32536;47.128;8.746;2023-05-01T08:49:32;91496.53;;;12.81;57.47
46778;BME280;32536;47.128;8.746;2023-05-01T08:52:01;91499.31;;;12.77;57.48
46778;BME280;32536;47.128;8.746;2023-05-01T08:54:30;91499.66;;;12.79;57.65
46778;BME280;32536;47.128;8.746;2023-05-01T08:57:00;91499.66;;;12.79;58.20
46778;BME280;32536;47.128;8.746;2023-05-01T08:59:30;91496.53;;;12.81;57.55
46778;BME280;32536;47.128;8.746;2023-05-01T09:02:00;91503.50;;;12.78;58.95
46778;BME280;32536;47.128;8.746;2023-05-01T09:04:38;91499.75;;;12.76;59.20
46778;BME280;32536;47.128;8.746;2023-05-01T09:07:05;91504.34;;;12.75;58.01
46778;BME280;32536;47.128;8.746;2023-05-01T09:09:33;91505.13;;;12.76;57.81
46778;BME280;32536;47.128;8.746;2023-05-01T09:12:08;91504.69;;;12.77;59.11
46778;BME280;32536;47.128;8.746;2023-05-01T09:14:55;91501.47;;;12.82;58.43
46778;BME280;32536;47.128;8.746;2023-05-01T09:17:23;91505.94;;;12.89;57.82
46778;BME280;32536;47.128;8.746;2023-05-01T09:19:50;91508.13;;;12.94;57.62
46778;BME280;32536;47.128;8.746;2023-05-01T09:22:18;91506.09;;;12.98;57.85
46778;BME280;32536;47.128;8.746;2023-05-01T09:24:45;91514.06;;;13.02;57.48
46778;BME280;32536;47.128;8.746;2023-05-01T09:27:12;91510.97;;;13.04;57.70
46778;BME280;32536;47.128;8.746;2023-05-01T09:32:19;91515.16;;;13.05;58.13
46778;BME280;32536;47.128;8.746;2023-05-01T09:34:48;91513.56;;;13.07;57.52
46778;BME280;32536;47.128;8.746;2023-05-01T09:37:29;91519.59;;;13.11;57.81
46778;BME280;32536;47.128;8.746;2023-05-01T09:42:33;91517.81;;;13.21;57.33
46778;BME280;32536;47.128;8.746;2023-05-01T09:45:03;91520.09;;;13.23;57.16
46778;BME280;32536;47.128;8.746;2023-05-01T09:47:31;91518.56;;;13.22;57.36
46778;BME280;32536;47.128;8.746;2023-05-01T09:49:58;91516.22;;;13.24;57.27
46778;BME280;32536;47.128;8.746;2023-05-01T09:52:26;91512.91;;;13.33;57.67
46778;BME280;32536;47.128;8.746;2023-05-01T09:55:14;91520.84;;;13.40;57.30
46778;BME280;32536;47.128;8.746;2023-05-01T09:57:44;91523.44;;;13.43;57.11
46778;BME280;32536;47.128;8.746;2023-05-01T10:00:13;91511.94;;;13.43;56.88
46778;BME280;32536;47.128;8.746;2023-05-01T10:02:42;91521.81;;;13.46;56.69
46778;BME280;32536;47.128;8.746;2023-05-01T10:05:10;91521.31;;;13.51;57.01
46778;BME280;32536;47.128;8.746;2023-05-01T10:07:39;91519.84;;;13.63;56.96
46778;BME280;32536;47.128;8.746;2023-05-01T10:10:21;91506.53;;;13.72;56.73
46778;BME280;32536;47.128;8.746;2023-05-01T10:12:48;91517.63;;;13.74;56.76
46778;BME280;32536;47.128;8.746;2023-05-01T10:15:15;91514.84;;;13.78;56.67
46778;BME280;32536;47.128;8.746;2023-05-01T10:17:43;91512.16;;;13.78;56.76
46778;BME280;32536;47.128;8.746;2023-05-01T10:20:11;91515.03;;;13.84;56.77
46778;BME280;32536;47.128;8.746;2023-05-01T10:22:38;91515.63;;;13.91;56.77
46778;BME280;32536;47.128;8.746;2023-05-01T10:25:10;91518.53;;;13.97;55.70
46778;BME280;32536;47.128;8.746;2023-05-01T10:27:41;91523.47;;;13.99;56.19
46778;BME280;32536;47.128;8.746;2023-05-01T10:30:08;91518.41;;;14.01;56.24
46778;BME280;32536;47.128;8.746;2023-05-01T10:32:36;91521.56;;;13.99;56.08
46778;BME280;32536;47.128;8.746;2023-05-01T10:35:18;91521.56;;;13.99;56.10
46778;BME280;32536;47.128;8.746;2023-05-01T10:38:04;91522.97;;;14.04;54.97
46778;BME280;32536;47.128;8.746;2023-05-01T10:45:47;91526.63;;;14.10;56.70
46778;BME280;32536;47.128;8.746;2023-05-01T10:51:18;91518.34;;;14.17;55.71
46778;BME280;32536;47.128;8.746;2023-05-01T10:56:39;91522.13;;;14.20;56.00
46778;BME280;32536;47.128;8.746;2023-05-01T10:59:07;91518.66;;;14.19;55.87
46778;BME280;32536;47.128;8.746;2023-05-01T11:01:37;91507.47;;;14.21;55.40
46778;BME280;32536;47.128;8.746;2023-05-01T11:12:07;91513.28;;;14.32;55.83
46778;BME280;32536;47.128;8.746;2023-05-01T11:22:39;91504.31;;;14.35;54.75
46778;BME280;32536;47.128;8.746;2023-05-01T11:25:21;91514.03;;;14.33;53.93
46778;BME280;32536;47.128;8.746;2023-05-01T11:27:53;91501.75;;;14.32;53.66
46778;BME280;32536;47.128;8.746;2023-05-01T11:30:24;91497.97;;;14.29;54.94
46778;BME280;32536;47.128;8.746;2023-05-01T11:32:51;91507.91;;;14.32;55.05
46778;BME280;32536;47.128;8.746;2023-05-01T11:35:23;91499.19;;;14.28;52.43
46778;BME280;32536;47.128;8.746;2023-05-01T11:37:52;91499.19;;;14.28;54.34
46778;BME280;32536;47.128;8.746;2023-05-01T11:40:24;91503.91;;;14.24;54.12
46778;BME280;32536;47.128;8.746;2023-05-01T11:43:06;91498.94;;;14.22;53.81
46778;BME280;32536;47.128;8.746;2023-05-01T11:45:34;91502.50;;;14.32;54.82
46778;BME280;32536;47.128;8.746;2023-05-01T11:48:02;91496.56;;;14.37;54.96
46778;BME280;32536;47.128;8.746;2023-05-01T11:50:37;91493.03;;;14.40;54.01
46778;BME280;32536;47.128;8.746;2023-05-01T11:53:10;91500.78;;;14.38;53.00
46778;BME280;32536;47.128;8.746;2023-05-01T11:55:42;91490.75;;;14.39;54.56
46778;BME280;32536;47.128;8.746;2023-05-01T11:58:09;91496.25;;;14.35;54.38
46778;BME280;32536;47.128;8.746;2023-05-01T12:00:38;91491.97;;;14.38;54.60
46778;BME280;32536;47.128;8.746;2023-05-01T12:03:10;91493.88;;;14.37;53.19
46778;BME280;32536;47.128;8.746;2023-05-01T12:05:39;91504.03;;;14.33;54.11
46778;BME280;32536;47.128;8.746;2023-05-01T12:08:20;91505.75;;;14.27;53.69
46778;BME280;32536;47.128;8.746;2023-05-01T12:10:55;91506.50;;;14.28;54.11
46778;BME280;32536;47.128;8.746;2023-05-01T12:13:22;91502.19;;;14.30;54.49
46778;BME280;32536;47.128;8.746;2023-05-01T12:15:51;91502.28;;;14.27;53.82
46778;BME280;32536;47.128;8.746;2023-05-01T12:18:19;91502.19;;;14.17;53.79
46778;BME280;32536;47.128;8.746;2023-05-01T12:20:51;91503.91;;;14.11;54.21
46778;BME280;32536;47.128;8.746;2023-05-01T12:23:28;91512.63;;;14.15;54.56
46778;BME280;32536;47.128;8.746;2023-05-01T12:25:57;91516.72;;;14.20;54.92
46778;BME280;32536;47.128;8.746;2023-05-01T12:28:23;91507.25;;;14.28;54.92
46778;BME280;32536;47.128;8.746;2023-05-01T12:30:52;91508.63;;;14.33;54.86
46778;BME280;32536;47.128;8.746;2023-05-01T12:33:22;91513.41;;;14.41;55.07
46778;BME280;32536;47.128;8.746;2023-05-01T12:35:49;91514.59;;;14.40;54.90
46778;BME280;32536;47.128;8.746;2023-05-01T12:38:18;91512.63;;;14.41;54.95
46778;BME280;32536;47.128;8.746;2023-05-01T12:40:53;91516.31;;;14.47;55.49
46778;BME280;32536;47.128;8.746;2023-05-01T12:43:29;91515.00;;;14.52;55.19
46778;BME280;32536;47.128;8.746;2023-05-01T12:45:58;91516.09;;;14.54;54.97
46778;BME280;32536;47.128;8.746;2023-05-01T12:48:25;91523.09;;;14.52;54.77
46778;BME280;32536;47.128;8.746;2023-05-01T12:50:52;91519.34;;;14.49;54.92
46778;BME280;32536;47.128;8.746;2023-05-01T12:53:21;91519.00;;;14.47;54.95
46778;BME280;32536;47.128;8.746;2023-05-01T12:55:54;91526.22;;;14.37;55.04
46778;BME280;32536;47.128;8.746;2023-05-01T12:58:22;91527.41;;;14.23;54.81
46778;BME280;32536;47.128;8.746;2023-05-01T13:00:51;91528.69;;;14.19;55.20
46778;BME280;32536;47.128;8.746;2023-05-01T13:03:24;91532.75;;;14.11;55.79
46778;BME280;32536;47.128;8.746;2023-05-01T13:06:02;91520.91;;;14.08;55.58
46778;BME280;32536;47.128;8.746;2023-05-01T13:08:36;91523.16;;;14.09;55.54
46778;BME280;32536;47.128;8.746;2023-05-01T13:11:11;91520.47;;;14.09;55.56
46778;BME280;32536;47.128;8.746;2023-05-01T13:13:43;91527.03;;;14.08;55.67
46778;BME280;32536;47.128;8.746;2023-05-01T13:16:11;91510.88;;;14.08;55.57
46778;BME280;32536;47.128;8.746;2023-05-01T13:18:44;91518.97;;;14.08;55.85
46778;BME280;32536;47.128;8.746;2023-05-01T13:21:12;91518.22;;;14.08;56.14
46778;BME280;32536;47.128;8.746;2023-05-01T13:23:41;91519.41;;;14.07;55.74
46778;BME280;32536;47.128;8.746;2023-05-01T13:26:16;91523.50;;;14.12;56.23
46778;BME280;32536;47.128;8.746;2023-05-01T13:28:44;91519.53;;;14.16;56.30
46778;BME280;32536;47.128;8.746;2023-05-01T13:31:12;91519.84;;;14.18;56.12
46778;BME280;32536;47.128;8.746;2023-05-01T13:33:41;91523.53;;;14.24;55.90
46778;BME280;32536;47.128;8.746;2023-05-01T13:36:09;91532.78;;;14.23;55.84
46778;BME280;32536;47.128;8.746;2023-05-01T13:38:43;91525.13;;;14.22;55.75
46778;BME280;32536;47.128;8.746;2023-05-01T13:41:19;91529.31;;;14.23;56.35
46778;BME280;32536;47.128;8.746;2023-05-01T13:43:51;91526.13;;;14.28;56.35
46778;BME280;32536;47.128;8.746;2023-05-01T13:46:20;91533.19;;;14.22;55.76
46778;BME280;32536;47.128;8.746;2023-05-01T13:48:48;91535.47;;;14.11;55.87
46778;BME280;32536;47.128;8.746;2023-05-01T13:51:22;91534.59;;;14.01;56.46
46778;BME280;32536;47.128;8.746;2023-05-01T13:53:50;91532.97;;;13.90;55.82
46778;BME280;32536;47.128;8.746;2023-05-01T13:56:20;91526.59;;;13.84;55.78
46778;BME280;32536;47.128;8.746;2023-05-01T13:58:48;91535.28;;;13.75;55.84